sensor_id;sensor_type;location;lat;lon;timestamp;pressure;altitude;pressure_sealevel;temperature
34125;BMP280;20110;53.120;5.786;2023-10-08T00:00:49;102329.91;;;20.38
34125;BMP280;20110;53.120;5.786;2023-10-08T00:03:21;102361.91;;;20.49
34125;BMP280;20110;53.120;5.786;2023-10-08T00:05:48;102375.06;;;20.45
34125;BMP280;20110;53.120;5.786;2023-10-08T00:08:15;102379.19;;;20.39
34125;BMP280;20110;53.120;5.786;2023-10-08T00:10:42;102380.84;;;20.34
34125;BMP280;20110;53.120;5.786;2023-10-08T00:13:11;102362.13;;;20.29
34125;BMP280;20110;53.120;5.786;2023-10-08T00:15:39;102368.94;;;20.37
34125;BMP280;20110;53.120;5.786;2023-10-08T00:18:22;102362.97;;;20.39
34125;BMP280;20110;53.120;5.786;2023-10-08T00:20:51;102365.34;;;20.42
34125;BMP280;20110;53.120;5.786;2023-10-08T00:23:24;102339.28;;;20.30
34125;BMP280;20110;53.120;5.786;2023-10-08T00:25:54;102324.38;;;20.21
34125;BMP280;20110;53.120;5.786;2023-10-08T00:28:21;102303.69;;;20.24
34125;BMP280;20110;53.120;5.786;2023-10-08T00:30:47;102298.63;;;20.28
34125;BMP280;20110;53.120;5.786;2023-10-08T00:33:19;102333.53;;;20.33
34125;BMP280;20110;53.120;5.786;2023-10-08T00:35:44;102331.38;;;20.17
34125;BMP280;20110;53.120;5.786;2023-10-08T00:38:11;102314.00;;;20.02
34125;BMP280;20110;53.120;5.786;2023-10-08T00:40:47;102344.34;;;20.18
34125;BMP280;20110;53.120;5.786;2023-10-08T00:43:32;102340.25;;;19.64
34125;BMP280;20110;53.120;5.786;2023-10-08T00:46:03;102360.75;;;19.90
34125;BMP280;20110;53.120;5.786;2023-10-08T00:48:45;102320.66;;;19.48
34125;BMP280;20110;53.120;5.786;2023-10-08T00:51:14;102379.06;;;19.68
34125;BMP280;20110;53.120;5.786;2023-10-08T00:54:01;102411.06;;;19.72
34125;BMP280;20110;53.120;5.786;2023-10-08T00:56:34;102398.13;;;19.70
34125;BMP280;20110;53.120;5.786;2023-10-08T00:59:18;102380.34;;;19.67
34125;BMP280;20110;53.120;5.786;2023-10-08T01:01:50;102357.31;;;19.59
34125;BMP280;20110;53.120;5.786;2023-10-08T01:04:30;102361.66;;;20.00
34125;BMP280;20110;53.120;5.786;2023-10-08T01:07:01;102396.31;;;20.26
34125;BMP280;20110;53.120;5.786;2023-10-08T01:09:36;102398.81;;;20.32
34125;BMP280;20110;53.120;5.786;2023-10-08T01:12:16;102407.47;;;20.30
34125;BMP280;20110;53.120;5.786;2023-10-08T01:15:06;102411.94;;;20.35
34125;BMP280;20110;53.120;5.786;2023-10-08T01:17:43;102368.09;;;20.04
34125;BMP280;20110;53.120;5.786;2023-10-08T01:20:24;102428.13;;;20.35
34125;BMP280;20110;53.120;5.786;2023-10-08T01:23:00;102428.66;;;20.49
34125;BMP280;20110;53.120;5.786;2023-10-08T01:25:39;102434.81;;;20.42
34125;BMP280;20110;53.120;5.786;2023-10-08T01:28:07;102328.94;;;19.58
34125;BMP280;20110;53.120;5.786;2023-10-08T01:30:57;102413.56;;;20.08
34125;BMP280;20110;53.120;5.786;2023-10-08T01:33:26;102470.22;;;20.46
34125;BMP280;20110;53.120;5.786;2023-10-08T01:35:56;102464.28;;;20.47
34125;BMP280;20110;53.120;5.786;2023-10-08T01:38:32;102449.00;;;20.42
34125;BMP280;20110;53.120;5.786;2023-10-08T01:41:01;102452.59;;;20.52
34125;BMP280;20110;53.120;5.786;2023-10-08T01:43:36;102457.06;;;20.58
34125;BMP280;20110;53.120;5.786;2023-10-08T01:46:04;102417.31;;;20.43
34125;BMP280;20110;53.120;5.786;2023-10-08T01:48:30;102424.50;;;20.48
34125;BMP280;20110;53.120;5.786;2023-10-08T01:51:03;102436.75;;;20.57
34125;BMP280;20110;53.120;5.786;2023-10-08T01:53:38;102423.06;;;20.47
34125;BMP280;20110;53.120;5.786;2023-10-08T01:56:05;102445.19;;;20.61
34125;BMP280;20110;53.120;5.786;2023-10-08T01:58:31;102460.44;;;20.73
34125;BMP280;20110;53.120;5.786;2023-10-08T02:00:59;102438.34;;;20.60
34125;BMP280;20110;53.120;5.786;2023-10-08T02:03:26;102457.22;;;20.67
34125;BMP280;20110;53.120;5.786;2023-10-08T02:05:55;102429.91;;;20.56
34125;BMP280;20110;53.120;5.786;2023-10-08T02:08:25;102456.13;;;20.70
34125;BMP280;20110;53.120;5.786;2023-10-08T02:10:52;102438.31;;;20.67
34125;BMP280;20110;53.120;5.786;2023-10-08T02:13:19;102449.13;;;20.67
34125;BMP280;20110;53.120;5.786;2023-10-08T02:15:49;102437.81;;;20.61
34125;BMP280;20110;53.120;5.786;2023-10-08T02:18:19;102427.94;;;20.48
34125;BMP280;20110;53.120;5.786;2023-10-08T02:20:45;102446.44;;;20.60
34125;BMP280;20110;53.120;5.786;2023-10-08T02:23:12;102417.50;;;20.37
34125;BMP280;20110;53.120;5.786;2023-10-08T02:25:39;102422.03;;;20.42
34125;BMP280;20110;53.120;5.786;2023-10-08T02:28:08;102466.94;;;20.70
34125;BMP280;20110;53.120;5.786;2023-10-08T02:30:42;102470.00;;;20.74
34125;BMP280;20110;53.120;5.786;2023-10-08T02:33:09;102464.94;;;20.71
34125;BMP280;20110;53.120;5.786;2023-10-08T02:35:46;102471.44;;;20.68
34125;BMP280;20110;53.120;5.786;2023-10-08T02:38:14;102466.44;;;20.57
34125;BMP280;20110;53.120;5.786;2023-10-08T02:40:44;102466.78;;;20.61
34125;BMP280;20110;53.120;5.786;2023-10-08T02:43:14;102466.78;;;20.61
34125;BMP280;20110;53.120;5.786;2023-10-08T02:45:42;102456.34;;;20.57
34125;BMP280;20110;53.120;5.786;2023-10-08T02:48:12;102430.47;;;20.31
34125;BMP280;20110;53.120;5.786;2023-10-08T02:50:43;102468.94;;;20.47
34125;BMP280;20110;53.120;5.786;2023-10-08T02:53:11;102469.31;;;20.43
34125;BMP280;20110;53.120;5.786;2023-10-08T02:55:40;102471.66;;;20.47
34125;BMP280;20110;53.120;5.786;2023-10-08T02:58:13;102456.56;;;20.44
34125;BMP280;20110;53.120;5.786;2023-10-08T03:00:47;102438.22;;;20.27
34125;BMP280;20110;53.120;5.786;2023-10-08T03:03:17;102438.56;;;20.31
34125;BMP280;20110;53.120;5.786;2023-10-08T03:05:52;102431.22;;;20.09
34125;BMP280;20110;53.120;5.786;2023-10-08T03:08:19;102452.25;;;20.26
34125;BMP280;20110;53.120;5.786;2023-10-08T03:10:51;102477.25;;;20.41
34125;BMP280;20110;53.120;5.786;2023-10-08T03:13:29;102476.50;;;20.48
34125;BMP280;20110;53.120;5.786;2023-10-08T03:15:55;102464.31;;;20.32
34125;BMP280;20110;53.120;5.786;2023-10-08T03:18:27;102490.38;;;20.45
34125;BMP280;20110;53.120;5.786;2023-10-08T03:21:06;102463.38;;;20.30
34125;BMP280;20110;53.120;5.786;2023-10-08T03:23:46;102480.09;;;20.51
34125;BMP280;20110;53.120;5.786;2023-10-08T03:26:23;102481.22;;;20.33
34125;BMP280;20110;53.120;5.786;2023-10-08T03:29:02;102491.47;;;20.27
34125;BMP280;20110;53.120;5.786;2023-10-08T03:31:42;102518.63;;;20.36
34125;BMP280;20110;53.120;5.786;2023-10-08T03:34:18;102520.25;;;20.32
34125;BMP280;20110;53.120;5.786;2023-10-08T03:36:47;102508.19;;;20.18
34125;BMP280;20110;53.120;5.786;2023-10-08T03:39:16;102516.44;;;20.12
34125;BMP280;20110;53.120;5.786;2023-10-08T03:41:44;102554.25;;;20.27
34125;BMP280;20110;53.120;5.786;2023-10-08T03:44:29;102526.84;;;20.08
34125;BMP280;20110;53.120;5.786;2023-10-08T03:46:55;102566.47;;;20.28
34125;BMP280;20110;53.120;5.786;2023-10-08T03:49:23;102569.38;;;20.30
34125;BMP280;20110;53.120;5.786;2023-10-08T03:51:52;102566.47;;;20.28
34125;BMP280;20110;53.120;5.786;2023-10-08T03:54:22;102563.03;;;20.20
34125;BMP280;20110;53.120;5.786;2023-10-08T03:57:01;102567.91;;;20.22
34125;BMP280;20110;53.120;5.786;2023-10-08T03:59:30;102560.69;;;20.24
34125;BMP280;20110;53.120;5.786;2023-10-08T04:02:05;102557.97;;;20.17
34125;BMP280;20110;53.120;5.786;2023-10-08T04:04:42;102526.84;;;19.93
34125;BMP280;20110;53.120;5.786;2023-10-08T04:07:22;102554.56;;;20.08
34125;BMP280;20110;53.120;5.786;2023-10-08T04:10:16;102579.44;;;20.37
34125;BMP280;20110;53.120;5.786;2023-10-08T04:13:00;102572.94;;;20.25
34125;BMP280;20110;53.120;5.786;2023-10-08T04:15:26;102580.47;;;20.19
34125;BMP280;20110;53.120;5.786;2023-10-08T04:17:52;102578.84;;;20.16
34125;BMP280;20110;53.120;5.786;2023-10-08T04:20:18;102576.16;;;20.08
34125;BMP280;20110;53.120;5.786;2023-10-08T04:23:09;102592.75;;;20.43
34125;BMP280;20110;53.120;5.786;2023-10-08T04:25:47;102562.88;;;20.48
34125;BMP280;20110;53.120;5.786;2023-10-08T04:28:20;102581.03;;;20.71
34125;BMP280;20110;53.120;5.786;2023-10-08T04:30:47;102562.88;;;20.56
34125;BMP280;20110;53.120;5.786;2023-10-08T04:33:16;102595.13;;;20.77
34125;BMP280;20110;53.120;5.786;2023-10-08T04:35:45;102578.00;;;20.67
34125;BMP280;20110;53.120;5.786;2023-10-08T04:38:20;102604.09;;;20.72
34125;BMP280;20110;53.120;5.786;2023-10-08T04:40:51;102580.88;;;20.61
34125;BMP280;20110;53.120;5.786;2023-10-08T04:43:23;102562.53;;;20.52
34125;BMP280;20110;53.120;5.786;2023-10-08T04:45:58;102577.63;;;20.55
34125;BMP280;20110;53.120;5.786;2023-10-08T04:48:27;102592.22;;;20.67
34125;BMP280;20110;53.120;5.786;2023-10-08T04:50:57;102585.72;;;20.70
34125;BMP280;20110;53.120;5.786;2023-10-08T04:53:34;102581.25;;;20.65
34125;BMP280;20110;53.120;5.786;2023-10-08T04:56:08;102572.06;;;20.30
34125;BMP280;20110;53.120;5.786;2023-10-08T04:58:47;102585.34;;;20.28
34125;BMP280;20110;53.120;5.786;2023-10-08T05:01:16;102578.34;;;20.33
34125;BMP280;20110;53.120;5.786;2023-10-08T05:03:48;102534.78;;;20.29
34125;BMP280;20110;53.120;5.786;2023-10-08T05:06:31;102569.19;;;20.43
34125;BMP280;20110;53.120;5.786;2023-10-08T05:09:10;102573.69;;;20.41
34125;BMP280;20110;53.120;5.786;2023-10-08T05:11:37;102574.03;;;20.37
34125;BMP280;20110;53.120;5.786;2023-10-08T05:14:14;102592.72;;;20.50
34125;BMP280;20110;53.120;5.786;2023-10-08T05:17:07;102600.13;;;20.50
34125;BMP280;20110;53.120;5.786;2023-10-08T05:19:41;102599.06;;;20.45
34125;BMP280;20110;53.120;5.786;2023-10-08T05:22:11;102583.38;;;20.29
34125;BMP280;20110;53.120;5.786;2023-10-08T05:24:58;102591.31;;;20.49
34125;BMP280;20110;53.120;5.786;2023-10-08T05:27:45;102567.56;;;20.48
34125;BMP280;20110;53.120;5.786;2023-10-08T05:32:53;102579.97;;;20.66
34125;BMP280;20110;53.120;5.786;2023-10-08T05:35:40;102590.97;;;20.61
34125;BMP280;20110;53.120;5.786;2023-10-08T05:38:11;102588.28;;;20.53
34125;BMP280;20110;53.120;5.786;2023-10-08T05:41:04;102626.78;;;20.61
34125;BMP280;20110;53.120;5.786;2023-10-08T05:43:42;102632.34;;;20.56
34125;BMP280;20110;53.120;5.786;2023-10-08T05:46:13;102608.94;;;20.35
34125;BMP280;20110;53.120;5.786;2023-10-08T05:49:01;102581.53;;;20.16
34125;BMP280;20110;53.120;5.786;2023-10-08T05:51:40;102567.16;;;20.06
34125;BMP280;20110;53.120;5.786;2023-10-08T05:54:31;102589.69;;;20.31
34125;BMP280;20110;53.120;5.786;2023-10-08T05:57:06;102593.78;;;20.17
34125;BMP280;20110;53.120;5.786;2023-10-08T05:59:33;102600.31;;;20.44
34125;BMP280;20110;53.120;5.786;2023-10-08T06:02:40;102638.06;;;20.29
34125;BMP280;20110;53.120;5.786;2023-10-08T06:05:13;102612.06;;;19.96
34125;BMP280;20110;53.120;5.786;2023-10-08T06:07:40;102639.47;;;20.15
34125;BMP280;20110;53.120;5.786;2023-10-08T06:10:25;102642.84;;;20.08
34125;BMP280;20110;53.120;5.786;2023-10-08T06:13:03;102626.09;;;19.94
34125;BMP280;20110;53.120;5.786;2023-10-08T06:15:41;102654.38;;;20.08
34125;BMP280;20110;53.120;5.786;2023-10-08T06:18:20;102636.03;;;19.99
34125;BMP280;20110;53.120;5.786;2023-10-08T06:20:46;102624.06;;;19.80
34125;BMP280;20110;53.120;5.786;2023-10-08T06:23:14;102654.50;;;19.95
34125;BMP280;20110;53.120;5.786;2023-10-08T06:25:44;102633.81;;;19.90
34125;BMP280;20110;53.120;5.786;2023-10-08T06:28:17;102607.31;;;19.74
34125;BMP280;20110;53.120;5.786;2023-10-08T06:30:48;102662.63;;;20.03
34125;BMP280;20110;53.120;5.786;2023-10-08T06:33:15;102656.56;;;20.10
34125;BMP280;20110;53.120;5.786;2023-10-08T06:35:42;102635.13;;;20.12
34125;BMP280;20110;53.120;5.786;2023-10-08T06:38:22;102588.69;;;19.91
34125;BMP280;20110;53.120;5.786;2023-10-08T06:40:50;102600.25;;;20.14
34125;BMP280;20110;53.120;5.786;2023-10-08T06:43:18;102560.81;;;19.88
34125;BMP280;20110;53.120;5.786;2023-10-08T06:45:48;102564.94;;;19.89
34125;BMP280;20110;53.120;5.786;2023-10-08T06:48:19;102626.34;;;20.19
34125;BMP280;20110;53.120;5.786;2023-10-08T06:50:47;102638.19;;;20.16
34125;BMP280;20110;53.120;5.786;2023-10-08T06:53:14;102637.13;;;20.19
34125;BMP280;20110;53.120;5.786;2023-10-08T06:55:41;102664.31;;;20.29
34125;BMP280;20110;53.120;5.786;2023-10-08T06:58:07;102681.59;;;20.26
34125;BMP280;20110;53.120;5.786;2023-10-08T07:00:35;102679.25;;;20.22
34125;BMP280;20110;53.120;5.786;2023-10-08T07:03:13;102696.38;;;20.47
34125;BMP280;20110;53.120;5.786;2023-10-08T07:05:46;102695.66;;;20.47
34125;BMP280;20110;53.120;5.786;2023-10-08T07:08:29;102663.19;;;20.17
34125;BMP280;20110;53.120;5.786;2023-10-08T07:10:58;102700.00;;;20.42
34125;BMP280;20110;53.120;5.786;2023-10-08T07:13:26;102672.84;;;20.56
34125;BMP280;20110;53.120;5.786;2023-10-08T07:15:55;102632.53;;;20.50
34125;BMP280;20110;53.120;5.786;2023-10-08T07:18:22;102648.91;;;20.52
34125;BMP280;20110;53.120;5.786;2023-10-08T07:20:53;102687.41;;;20.60
34125;BMP280;20110;53.120;5.786;2023-10-08T07:23:28;102680.06;;;20.68
34125;BMP280;20110;53.120;5.786;2023-10-08T07:26:02;102665.31;;;20.77
34125;BMP280;20110;53.120;5.786;2023-10-08T07:28:41;102679.53;;;20.85
34125;BMP280;20110;53.120;5.786;2023-10-08T07:31:19;102642.06;;;20.66
34125;BMP280;20110;53.120;5.786;2023-10-08T07:33:54;102612.00;;;20.47
34125;BMP280;20110;53.120;5.786;2023-10-08T07:36:27;102633.06;;;20.48
34125;BMP280;20110;53.120;5.786;2023-10-08T07:38:54;102654.47;;;20.92
34125;BMP280;20110;53.120;5.786;2023-10-08T07:41:20;102709.81;;;21.06
34125;BMP280;20110;53.120;5.786;2023-10-08T07:43:47;102682.41;;;21.02
34125;BMP280;20110;53.120;5.786;2023-10-08T07:46:25;102660.09;;;21.02
34125;BMP280;20110;53.120;5.786;2023-10-08T07:48:57;102640.44;;;21.01
34125;BMP280;20110;53.120;5.786;2023-10-08T07:51:24;102637.72;;;21.24
34125;BMP280;20110;53.120;5.786;2023-10-08T07:53:53;102723.03;;;21.65
34125;BMP280;20110;53.120;5.786;2023-10-08T07:56:25;102723.38;;;21.69
34125;BMP280;20110;53.120;5.786;2023-10-08T07:58:54;102741.00;;;21.93
34125;BMP280;20110;53.120;5.786;2023-10-08T08:01:23;102726.56;;;21.90
34125;BMP280;20110;53.120;5.786;2023-10-08T08:03:50;102767.19;;;22.30
34125;BMP280;20110;53.120;5.786;2023-10-08T08:06:17;102795.09;;;22.40
34125;BMP280;20110;53.120;5.786;2023-10-08T08:08:43;102781.56;;;22.40
34125;BMP280;20110;53.120;5.786;2023-10-08T08:11:10;102820.75;;;22.72
34125;BMP280;20110;53.120;5.786;2023-10-08T08:13:43;102816.72;;;22.80
34125;BMP280;20110;53.120;5.786;2023-10-08T08:16:14;102806.38;;;22.86
34125;BMP280;20110;53.120;5.786;2023-10-08T08:18:53;102792.38;;;22.97
34125;BMP280;20110;53.120;5.786;2023-10-08T08:21:23;102773.63;;;23.17
34125;BMP280;20110;53.120;5.786;2023-10-08T08:23:49;102781.94;;;23.36
34125;BMP280;20110;53.120;5.786;2023-10-08T08:26:24;102791.59;;;23.46
34125;BMP280;20110;53.120;5.786;2023-10-08T08:29:05;102778.94;;;23.66
34125;BMP280;20110;53.120;5.786;2023-10-08T08:31:35;102771.38;;;23.65
34125;BMP280;20110;53.120;5.786;2023-10-08T08:34:03;102791.44;;;23.79
34125;BMP280;20110;53.120;5.786;2023-10-08T08:36:34;102775.97;;;23.72
34125;BMP280;20110;53.120;5.786;2023-10-08T08:39:03;102788.78;;;23.88
34125;BMP280;20110;53.120;5.786;2023-10-08T08:41:30;102775.97;;;23.72
34125;BMP280;20110;53.120;5.786;2023-10-08T08:43:56;102782.84;;;23.56
34125;BMP280;20110;53.120;5.786;2023-10-08T08:46:35;102764.81;;;23.33
34125;BMP280;20110;53.120;5.786;2023-10-08T08:49:06;102779.63;;;23.49
34125;BMP280;20110;53.120;5.786;2023-10-08T08:51:37;102777.91;;;23.44
34125;BMP280;20110;53.120;5.786;2023-10-08T08:54:05;102772.28;;;23.42
34125;BMP280;20110;53.120;5.786;2023-10-08T08:56:37;102765.81;;;23.21
34125;BMP280;20110;53.120;5.786;2023-10-08T08:59:07;102766.50;;;23.04
34125;BMP280;20110;53.120;5.786;2023-10-08T09:01:39;102761.50;;;23.00
34125;BMP280;20110;53.120;5.786;2023-10-08T09:04:05;102781.94;;;23.36
34125;BMP280;20110;53.120;5.786;2023-10-08T09:06:36;102751.06;;;23.48
34125;BMP280;20110;53.120;5.786;2023-10-08T09:09:07;102769.16;;;23.98
34125;BMP280;20110;53.120;5.786;2023-10-08T09:11:59;102739.16;;;24.05
34125;BMP280;20110;53.120;5.786;2023-10-08T09:14:27;102750.00;;;24.22
34125;BMP280;20110;53.120;5.786;2023-10-08T09:16:59;102722.69;;;24.20
34125;BMP280;20110;53.120;5.786;2023-10-08T09:19:26;102750.38;;;24.46
34125;BMP280;20110;53.120;5.786;2023-10-08T09:22:08;102757.44;;;24.68
34125;BMP280;20110;53.120;5.786;2023-10-08T09:24:40;102759.94;;;24.93
34125;BMP280;20110;53.120;5.786;2023-10-08T09:27:08;102745.94;;;24.96
34125;BMP280;20110;53.120;5.786;2023-10-08T09:29:37;102772.00;;;25.38
34125;BMP280;20110;53.120;5.786;2023-10-08T09:32:11;102784.56;;;25.81
34125;BMP280;20110;53.120;5.786;2023-10-08T09:34:39;102777.81;;;26.32
34125;BMP280;20110;53.120;5.786;2023-10-08T09:37:06;102759.22;;;26.50
34125;BMP280;20110;53.120;5.786;2023-10-08T09:39:33;102781.69;;;26.60
34125;BMP280;20110;53.120;5.786;2023-10-08T09:42:03;102776.41;;;26.22
34125;BMP280;20110;53.120;5.786;2023-10-08T09:44:32;102790.66;;;26.10
34125;BMP280;20110;53.120;5.786;2023-10-08T09:47:07;102788.00;;;25.91
34125;BMP280;20110;53.120;5.786;2023-10-08T09:50:02;102782.66;;;26.03
34125;BMP280;20110;53.120;5.786;2023-10-08T09:53:10;102768.19;;;26.31
34125;BMP280;20110;53.120;5.786;2023-10-08T09:55:57;102762.22;;;26.23
34125;BMP280;20110;53.120;5.786;2023-10-08T09:58:27;102750.38;;;25.99
34125;BMP280;20110;53.120;5.786;2023-10-08T10:00:56;102759.94;;;26.20
34125;BMP280;20110;53.120;5.786;2023-10-08T10:03:25;102751.66;;;26.17
34125;BMP280;20110;53.120;5.786;2023-10-08T10:05:52;102758.91;;;26.25
34125;BMP280;20110;53.120;5.786;2023-10-08T10:08:20;102764.00;;;26.40
34125;BMP280;20110;53.120;5.786;2023-10-08T10:10:59;102751.88;;;26.52
34125;BMP280;20110;53.120;5.786;2023-10-08T10:13:29;102741.75;;;26.64
34125;BMP280;20110;53.120;5.786;2023-10-08T10:15:57;102744.81;;;26.59
34125;BMP280;20110;53.120;5.786;2023-10-08T10:23:48;102768.94;;;26.22
34125;BMP280;20110;53.120;5.786;2023-10-08T10:26:32;102772.88;;;26.09
34125;BMP280;20110;53.120;5.786;2023-10-08T10:29:25;102763.34;;;26.30
34125;BMP280;20110;53.120;5.786;2023-10-08T10:31:53;102784.31;;;26.48
34125;BMP280;20110;53.120;5.786;2023-10-08T10:34:23;102794.31;;;26.55
34125;BMP280;20110;53.120;5.786;2023-10-08T10:36:54;102787.78;;;26.39
34125;BMP280;20110;53.120;5.786;2023-10-08T10:39:35;102782.88;;;26.26
34125;BMP280;20110;53.120;5.786;2023-10-08T10:42:06;102773.94;;;25.95
34125;BMP280;20110;53.120;5.786;2023-10-08T10:44:44;102771.69;;;25.72
34125;BMP280;20110;53.120;5.786;2023-10-08T10:47:10;102763.81;;;25.57
34125;BMP280;20110;53.120;5.786;2023-10-08T10:49:53;102758.81;;;25.53
34125;BMP280;20110;53.120;5.786;2023-10-08T10:52:39;102732.03;;;25.59
34125;BMP280;20110;53.120;5.786;2023-10-08T10:55:13;102731.47;;;25.61
34125;BMP280;20110;53.120;5.786;2023-10-08T10:57:49;102724.59;;;25.60
34125;BMP280;20110;53.120;5.786;2023-10-08T11:00:26;102732.56;;;25.77
34125;BMP280;20110;53.120;5.786;2023-10-08T11:02:59;102730.28;;;25.83
34125;BMP280;20110;53.120;5.786;2023-10-08T11:05:30;102728.88;;;26.13
34125;BMP280;20110;53.120;5.786;2023-10-08T11:08:00;102733.44;;;26.41
34125;BMP280;20110;53.120;5.786;2023-10-08T11:10:37;102738.66;;;26.58
34125;BMP280;20110;53.120;5.786;2023-10-08T11:13:12;102745.16;;;26.96
34125;BMP280;20110;53.120;5.786;2023-10-08T11:15:43;102752.47;;;27.26
34125;BMP280;20110;53.120;5.786;2023-10-08T11:18:16;102752.84;;;27.77
34125;BMP280;20110;53.120;5.786;2023-10-08T11:20:44;102709.72;;;27.75
34125;BMP280;20110;53.120;5.786;2023-10-08T11:23:36;102734.88;;;28.20
34125;BMP280;20110;53.120;5.786;2023-10-08T11:26:05;102709.13;;;28.85
34125;BMP280;20110;53.120;5.786;2023-10-08T11:28:34;102700.81;;;29.22
34125;BMP280;20110;53.120;5.786;2023-10-08T11:31:06;102713.81;;;29.49
34125;BMP280;20110;53.120;5.786;2023-10-08T11:33:43;102706.72;;;29.58
34125;BMP280;20110;53.120;5.786;2023-10-08T11:36:20;102704.22;;;29.75
34125;BMP280;20110;53.120;5.786;2023-10-08T11:38:54;102681.97;;;29.83
34125;BMP280;20110;53.120;5.786;2023-10-08T11:41:28;102709.84;;;30.07
34125;BMP280;20110;53.120;5.786;2023-10-08T11:44:09;102706.59;;;30.24
34125;BMP280;20110;53.120;5.786;2023-10-08T11:46:39;102695.59;;;30.53
34125;BMP280;20110;53.120;5.786;2023-10-08T11:49:11;102691.22;;;30.32
34125;BMP280;20110;53.120;5.786;2023-10-08T11:51:45;102688.75;;;29.95
34125;BMP280;20110;53.120;5.786;2023-10-08T11:54:14;102681.19;;;29.53
34125;BMP280;20110;53.120;5.786;2023-10-08T11:56:40;102650.38;;;28.86
34125;BMP280;20110;53.120;5.786;2023-10-08T11:59:07;102671.59;;;28.49
34125;BMP280;20110;53.120;5.786;2023-10-08T12:01:36;102680.19;;;28.43
34125;BMP280;20110;53.120;5.786;2023-10-08T12:04:04;102666.28;;;28.28
34125;BMP280;20110;53.120;5.786;2023-10-08T12:06:32;102681.66;;;28.10
34125;BMP280;20110;53.120;5.786;2023-10-08T12:08:58;102684.69;;;27.79
34125;BMP280;20110;53.120;5.786;2023-10-08T12:11:26;102692.28;;;27.69
34125;BMP280;20110;53.120;5.786;2023-10-08T12:13:59;102701.28;;;27.94
34125;BMP280;20110;53.120;5.786;2023-10-08T12:16:25;102697.81;;;28.05
34125;BMP280;20110;53.120;5.786;2023-10-08T12:18:56;102708.72;;;28.40
34125;BMP280;20110;53.120;5.786;2023-10-08T12:21:26;102690.09;;;28.87
34125;BMP280;20110;53.120;5.786;2023-10-08T12:23:56;102665.13;;;29.20
34125;BMP280;20110;53.120;5.786;2023-10-08T12:26:22;102689.81;;;29.47
34125;BMP280;20110;53.120;5.786;2023-10-08T12:28:49;102693.22;;;29.34
34125;BMP280;20110;53.120;5.786;2023-10-08T12:31:20;102694.44;;;29.31
34125;BMP280;20110;53.120;5.786;2023-10-08T12:33:53;102686.94;;;29.45
34125;BMP280;20110;53.120;5.786;2023-10-08T12:36:26;102660.00;;;29.54
34125;BMP280;20110;53.120;5.786;2023-10-08T12:38:58;102676.91;;;29.64
34125;BMP280;20110;53.120;5.786;2023-10-08T12:41:27;102651.28;;;29.57
34125;BMP280;20110;53.120;5.786;2023-10-08T12:43:54;102676.41;;;29.94
34125;BMP280;20110;53.120;5.786;2023-10-08T12:46:21;102693.34;;;29.91
34125;BMP280;20110;53.120;5.786;2023-10-08T12:48:53;102669.50;;;29.66
34125;BMP280;20110;53.120;5.786;2023-10-08T12:51:24;102688.69;;;29.52
34125;BMP280;20110;53.120;5.786;2023-10-08T12:53:53;102694.97;;;29.55
34125;BMP280;20110;53.120;5.786;2023-10-08T12:56:29;102693.25;;;29.75
34125;BMP280;20110;53.120;5.786;2023-10-08T12:59:04;102648.81;;;29.36
34125;BMP280;20110;53.120;5.786;2023-10-08T13:01:36;102684.34;;;28.95
34125;BMP280;20110;53.120;5.786;2023-10-08T13:04:07;102680.00;;;28.53
34125;BMP280;20110;53.120;5.786;2023-10-08T13:06:34;102676.81;;;28.08
34125;BMP280;20110;53.120;5.786;2023-10-08T13:09:04;102676.28;;;27.86
34125;BMP280;20110;53.120;5.786;2023-10-08T13:11:38;102671.00;;;27.90
34125;BMP280;20110;53.120;5.786;2023-10-08T13:14:06;102644.78;;;27.97
34125;BMP280;20110;53.120;5.786;2023-10-08T13:16:32;102659.16;;;27.97
34125;BMP280;20110;53.120;5.786;2023-10-08T13:18:59;102644.69;;;27.72
34125;BMP280;20110;53.120;5.786;2023-10-08T13:21:26;102668.91;;;27.54
34125;BMP280;20110;53.120;5.786;2023-10-08T13:23:52;102654.97;;;27.15
34125;BMP280;20110;53.120;5.786;2023-10-08T13:26:19;102690.53;;;27.17
34125;BMP280;20110;53.120;5.786;2023-10-08T13:28:48;102686.69;;;26.99
34125;BMP280;20110;53.120;5.786;2023-10-08T13:31:14;102705.22;;;26.79
34125;BMP280;20110;53.120;5.786;2023-10-08T13:33:43;102655.66;;;26.50
34125;BMP280;20110;53.120;5.786;2023-10-08T13:36:15;102682.28;;;26.94
34125;BMP280;20110;53.120;5.786;2023-10-08T13:38:42;102617.56;;;26.61
34125;BMP280;20110;53.120;5.786;2023-10-08T13:41:09;102649.41;;;26.80
34125;BMP280;20110;53.120;5.786;2023-10-08T13:43:43;102643.31;;;26.70
34125;BMP280;20110;53.120;5.786;2023-10-08T13:46:20;102664.50;;;26.60
34125;BMP280;20110;53.120;5.786;2023-10-08T13:48:49;102661.59;;;26.46
34125;BMP280;20110;53.120;5.786;2023-10-08T13:51:20;102656.06;;;26.35
34125;BMP280;20110;53.120;5.786;2023-10-08T13:53:51;102661.34;;;26.11
34125;BMP280;20110;53.120;5.786;2023-10-08T13:56:26;102656.94;;;26.06
34125;BMP280;20110;53.120;5.786;2023-10-08T13:58:54;102634.75;;;26.00
34125;BMP280;20110;53.120;5.786;2023-10-08T14:01:52;102623.09;;;25.79
34125;BMP280;20110;53.120;5.786;2023-10-08T14:04:20;102664.22;;;25.83
34125;BMP280;20110;53.120;5.786;2023-10-08T14:06:51;102652.53;;;25.70
34125;BMP280;20110;53.120;5.786;2023-10-08T14:09:22;102645.66;;;25.60
34125;BMP280;20110;53.120;5.786;2023-10-08T14:11:56;102651.41;;;25.54
34125;BMP280;20110;53.120;5.786;2023-10-08T14:14:23;102630.22;;;25.53
34125;BMP280;20110;53.120;5.786;2023-10-08T14:16:56;102618.03;;;25.54
34125;BMP280;20110;53.120;5.786;2023-10-08T14:19:26;102613.22;;;25.43
34125;BMP280;20110;53.120;5.786;2023-10-08T14:22:02;102612.94;;;25.39
34125;BMP280;20110;53.120;5.786;2023-10-08T14:24:34;102608.78;;;25.38
34125;BMP280;20110;53.120;5.786;2023-10-08T14:27:04;102584.06;;;25.24
34125;BMP280;20110;53.120;5.786;2023-10-08T14:29:39;102595.13;;;25.07
34125;BMP280;20110;53.120;5.786;2023-10-08T14:32:15;102612.28;;;25.09
34125;BMP280;20110;53.120;5.786;2023-10-08T14:34:41;102599.84;;;24.97